Enter the Airport ICAO Code

Search by Airport or City

Current Weather

GCFV | Fuerteventura Airport

Fuerteventura, Canary Islands, Spain

Last Update 31 Minutes Ago

Sky with Few Clouds

Temperature of 17 ºC

Moderate Winds from North

Temperature

17 ºC

Dew Point Temperature

13 ºC

Relative Humidity

77.41 %

Wind Direction

North (360º, Without Significant Variations)

Wind Velocity

28 km/h (15 kt)

Gusts

None

Visibility

Greater than 10 Kilometers

Sea Level Pressure

1019 hPa (Hectopascals)

Layers of Clouds

5% to 30% of Sky Covered from 1067 mts (3500 ft) Above Ground Level.

METAR GCFV 052200Z 36015KT 9999 FEW035 17/13 Q1019

Weather Forecast

GCFV | Fuerteventura Airport

Fuerteventura, Canary Islands, Spain

Forecast valid for the next 22 Hours

From now on it is expected:

Partly Cloudy Sky

Moderate Winds from North

Maximum Temperature

21 ºC in 15 Hours

Minimum Temperature

16 ºC in 8 Hours

TAF GCFV 052000Z 0521/0621 36013KT 9999 SCT035 TX21/0614Z TN16/0607Z